createdAt,value
2023-01-28T00:00:19.824Z,974.02
2023-01-28T00:01:19.884Z,974.03
2023-01-28T00:02:19.937Z,973.98
2023-01-28T00:03:19.940Z,974.01
2023-01-28T00:04:20.019Z,973.93
2023-01-28T00:05:20.021Z,973.99
2023-01-28T00:06:20.052Z,973.96
2023-01-28T00:07:20.091Z,974.01
2023-01-28T00:08:20.134Z,973.94
2023-01-28T00:09:20.189Z,973.95
2023-01-28T00:10:20.222Z,973.97
2023-01-28T00:11:20.254Z,973.95
2023-01-28T00:12:20.286Z,973.94
2023-01-28T00:13:20.357Z,973.94
2023-01-28T00:14:20.367Z,973.98
2023-01-28T00:15:20.417Z,973.97
2023-01-28T00:16:20.501Z,973.95
2023-01-28T00:17:20.478Z,973.92
2023-01-28T00:18:20.548Z,973.95
2023-01-28T00:19:20.561Z,973.96
2023-01-28T00:20:20.602Z,973.96
2023-01-28T00:21:20.641Z,973.90
2023-01-28T00:22:20.693Z,973.91
2023-01-28T00:23:20.748Z,973.89
2023-01-28T00:24:20.832Z,973.91
2023-01-28T00:25:20.809Z,973.88
2023-01-28T00:26:20.827Z,973.89
2023-01-28T00:27:20.867Z,973.89
2023-01-28T00:28:20.940Z,973.91
2023-01-28T00:29:20.944Z,973.91
2023-01-28T00:30:20.983Z,973.88
2023-01-28T00:31:21.077Z,973.92
2023-01-28T00:32:21.069Z,973.92
2023-01-28T00:33:21.109Z,973.89
2023-01-28T00:34:21.147Z,973.94
2023-01-28T00:35:21.175Z,973.90
2023-01-28T00:36:21.246Z,973.87
2023-01-28T00:37:21.261Z,973.90
2023-01-28T00:38:22.235Z,973.86
2023-01-28T00:39:21.356Z,973.85
2023-01-28T00:40:21.377Z,973.84
2023-01-28T00:41:21.407Z,973.85
2023-01-28T00:42:21.469Z,973.81
2023-01-28T00:43:21.487Z,973.86
2023-01-28T00:44:21.558Z,973.83
2023-01-28T00:45:21.577Z,973.84
2023-01-28T00:46:21.663Z,973.82
2023-01-28T00:47:21.648Z,973.86
2023-01-28T00:48:21.683Z,973.78
2023-01-28T00:49:21.746Z,973.83
2023-01-28T00:50:21.770Z,973.83
2023-01-28T00:51:21.808Z,973.86
2023-01-28T00:52:21.845Z,973.84
2023-01-28T00:53:21.872Z,973.85
2023-01-28T00:54:21.943Z,973.84
2023-01-28T00:55:21.947Z,973.85
2023-01-28T00:56:22.020Z,973.86
2023-01-28T00:57:22.035Z,973.84
2023-01-28T00:58:22.071Z,973.85
2023-01-28T00:59:22.145Z,973.82
2023-01-28T01:00:22.155Z,973.85
2023-01-28T01:01:22.217Z,973.88
2023-01-28T01:02:22.286Z,973.87
2023-01-28T01:03:22.267Z,973.85
2023-01-28T01:04:22.306Z,973.90
2023-01-28T01:05:22.340Z,973.89
2023-01-28T01:06:22.382Z,973.89
2023-01-28T01:07:22.444Z,973.90
2023-01-28T01:08:22.459Z,973.87
2023-01-28T01:09:22.516Z,973.89
2023-01-28T01:10:22.538Z,973.88
2023-01-28T01:11:22.568Z,973.90
2023-01-28T01:12:22.613Z,973.88
2023-01-28T01:13:22.650Z,973.89
2023-01-28T01:14:22.707Z,973.88
2023-01-28T01:15:22.723Z,973.88
2023-01-28T01:16:22.760Z,973.87
2023-01-28T01:17:22.809Z,973.89
2023-01-28T01:18:22.866Z,973.94
2023-01-28T01:19:22.876Z,973.92
2023-01-28T01:20:22.922Z,973.94
2023-01-28T01:21:23.741Z,973.95
2023-01-28T01:22:22.992Z,973.96
2023-01-28T01:23:23.050Z,973.93
2023-01-28T01:24:23.108Z,973.91
2023-01-28T01:25:23.162Z,973.95
2023-01-28T01:26:23.152Z,973.93
2023-01-28T01:27:23.184Z,973.95
2023-01-28T01:28:23.231Z,973.98
2023-01-28T01:29:23.259Z,973.98
2023-01-28T01:30:23.322Z,973.98
2023-01-28T01:31:23.431Z,973.95
2023-01-28T01:32:23.415Z,973.94
2023-01-28T01:33:24.237Z,973.92
2023-01-28T01:34:23.477Z,973.97
2023-01-28T01:35:23.493Z,974.03
2023-01-28T01:36:23.550Z,974.03
2023-01-28T01:37:23.570Z,974.02
2023-01-28T01:38:23.609Z,974.04
2023-01-28T01:39:23.672Z,974.04
2023-01-28T01:40:23.710Z,974.05
2023-01-28T01:41:23.735Z,974.10
2023-01-28T01:42:23.762Z,974.06
2023-01-28T01:43:23.802Z,974.03
2023-01-28T01:44:23.871Z,974.05
2023-01-28T01:45:23.895Z,974.06
2023-01-28T01:46:24.002Z,973.97
2023-01-28T01:47:23.965Z,973.98
2023-01-28T01:48:23.996Z,974.00
2023-01-28T01:49:24.056Z,974.03
2023-01-28T01:50:24.074Z,974.03
2023-01-28T01:51:24.127Z,974.06
2023-01-28T01:52:24.185Z,974.01
2023-01-28T01:53:24.198Z,974.07
2023-01-28T01:54:24.236Z,974.04
2023-01-28T01:55:24.267Z,974.07
2023-01-28T01:56:24.324Z,974.07
2023-01-28T01:57:24.376Z,974.06
2023-01-28T01:58:24.386Z,974.05
2023-01-28T01:59:24.421Z,974.08
2023-01-28T02:00:24.484Z,974.05
2023-01-28T02:01:24.513Z,974.09
2023-01-28T02:02:24.637Z,974.06
2023-01-28T02:03:24.603Z,974.06
2023-01-28T02:04:25.235Z,974.03
2023-01-28T02:05:24.689Z,974.07
2023-01-28T02:06:24.693Z,974.06
2023-01-28T02:07:24.759Z,974.09
2023-01-28T02:08:24.767Z,974.06
2023-01-28T02:09:24.819Z,974.05
2023-01-28T02:10:24.879Z,974.02
2023-01-28T02:11:24.904Z,974.02
2023-01-28T02:12:24.930Z,974.00
2023-01-28T02:13:24.996Z,973.99
2023-01-28T02:14:31.038Z,974.05
2023-01-28T02:15:25.058Z,974.04
2023-01-28T02:16:25.118Z,974.08
2023-01-28T02:17:25.146Z,974.08
2023-01-28T02:18:25.157Z,974.05
2023-01-28T02:19:25.217Z,974.07
2023-01-28T02:20:25.232Z,974.05
2023-01-28T02:21:25.288Z,974.10
2023-01-28T02:22:25.338Z,974.12
2023-01-28T02:23:25.376Z,974.11
2023-01-28T02:24:25.514Z,974.08
2023-01-28T02:25:25.435Z,974.12
2023-01-28T02:26:25.507Z,974.15
2023-01-28T02:27:25.511Z,974.11
2023-01-28T02:28:25.555Z,974.10
2023-01-28T02:29:25.600Z,974.10
2023-01-28T02:30:25.624Z,974.11
2023-01-28T02:31:25.759Z,974.09
2023-01-28T02:32:25.733Z,974.12
2023-01-28T02:33:25.763Z,974.07
2023-01-28T02:34:25.779Z,974.05
2023-01-28T02:35:26.745Z,974.05
2023-01-28T02:36:25.898Z,974.06
2023-01-28T02:37:25.903Z,974.04
2023-01-28T02:38:25.933Z,974.04
2023-01-28T02:39:25.976Z,974.02
2023-01-28T02:40:26.002Z,974.06
2023-01-28T02:41:26.067Z,974.07
2023-01-28T02:42:26.103Z,974.10
2023-01-28T02:43:26.125Z,974.03
2023-01-28T02:44:26.169Z,974.07
2023-01-28T02:45:26.198Z,974.10
2023-01-28T02:46:26.295Z,974.10
2023-01-28T02:47:26.302Z,974.07
2023-01-28T02:48:26.314Z,974.09
2023-01-28T02:49:26.378Z,974.05
2023-01-28T02:50:26.423Z,974.09
2023-01-28T02:51:26.435Z,974.06
2023-01-28T02:52:26.468Z,974.04
2023-01-28T02:53:26.517Z,974.01
2023-01-28T02:54:26.551Z,974.01
2023-01-28T02:55:26.607Z,974.04
2023-01-28T02:56:26.629Z,973.99
2023-01-28T02:57:26.687Z,973.98
2023-01-28T02:58:26.720Z,974.02
2023-01-28T02:59:26.743Z,974.02
2023-01-28T03:00:27.735Z,974.01
2023-01-28T03:01:26.859Z,974.02
2023-01-28T03:02:26.914Z,974.00
2023-01-28T03:03:26.891Z,973.98
2023-01-28T03:04:26.939Z,974.04
2023-01-28T03:05:27.025Z,974.01
2023-01-28T03:06:27.747Z,974.04
2023-01-28T03:07:27.100Z,974.01
2023-01-28T03:08:27.090Z,974.05
2023-01-28T03:09:27.299Z,974.04
2023-01-28T03:10:27.158Z,974.03
2023-01-28T03:11:27.209Z,974.03
2023-01-28T03:12:27.283Z,974.02
2023-01-28T03:13:27.315Z,974.04
2023-01-28T03:14:27.344Z,974.04
2023-01-28T03:15:27.374Z,974.01
2023-01-28T03:16:27.389Z,974.03
2023-01-28T03:17:27.457Z,974.02
2023-01-28T03:18:27.466Z,974.03
2023-01-28T03:19:27.529Z,974.01
2023-01-28T03:20:27.554Z,974.05
2023-01-28T03:21:27.593Z,974.01
2023-01-28T03:22:27.620Z,974.05
2023-01-28T03:23:27.700Z,974.02
2023-01-28T03:24:27.778Z,974.03
2023-01-28T03:25:27.750Z,974.00
2023-01-28T03:26:27.781Z,974.03
2023-01-28T03:27:27.824Z,974.02
2023-01-28T03:28:27.882Z,974.03
2023-01-28T03:29:27.913Z,974.06
2023-01-28T03:30:27.929Z,974.08
2023-01-28T03:31:27.971Z,974.06
2023-01-28T03:32:28.026Z,974.09
2023-01-28T03:33:28.051Z,974.13
2023-01-28T03:34:28.123Z,974.03
2023-01-28T03:35:28.136Z,974.04
2023-01-28T03:36:28.191Z,974.11
2023-01-28T03:37:28.750Z,974.04
2023-01-28T03:38:28.270Z,974.04
2023-01-28T03:39:28.276Z,974.03
2023-01-28T03:40:28.324Z,974.06
2023-01-28T03:41:28.377Z,974.06
2023-01-28T03:42:28.397Z,974.11
2023-01-28T03:43:28.473Z,974.13
2023-01-28T03:44:28.479Z,974.09
2023-01-28T03:45:28.504Z,974.15
2023-01-28T03:46:28.568Z,974.11
2023-01-28T03:47:28.585Z,974.14
2023-01-28T03:48:28.652Z,974.20
2023-01-28T03:49:28.667Z,974.16
2023-01-28T03:50:28.709Z,974.17
2023-01-28T03:51:28.744Z,974.17
2023-01-28T03:52:28.774Z,974.18
2023-01-28T03:53:28.858Z,974.18
2023-01-28T03:54:28.859Z,974.24
2023-01-28T03:55:28.917Z,974.22
2023-01-28T03:56:28.936Z,974.23
2023-01-28T03:57:28.974Z,974.23
2023-01-28T03:58:29.003Z,974.22
2023-01-28T03:59:29.048Z,974.21
2023-01-28T04:00:29.104Z,974.22
2023-01-28T04:01:29.179Z,974.24
2023-01-28T04:02:29.200Z,974.25
2023-01-28T04:03:29.200Z,974.22
2023-01-28T04:04:29.240Z,974.25
2023-01-28T04:05:29.281Z,974.27
2023-01-28T04:06:29.345Z,974.28
2023-01-28T04:07:29.352Z,974.29
2023-01-28T04:08:29.394Z,974.25
2023-01-28T04:09:29.459Z,974.24
2023-01-28T04:10:29.477Z,974.24
2023-01-28T04:11:29.547Z,974.28
2023-01-28T04:12:29.546Z,974.28
2023-01-28T04:13:29.589Z,974.27
2023-01-28T04:14:30.244Z,974.27
2023-01-28T04:15:29.668Z,974.26
2023-01-28T04:16:29.772Z,974.26
2023-01-28T04:17:29.747Z,974.27
2023-01-28T04:18:29.782Z,974.31
2023-01-28T04:19:29.823Z,974.29
2023-01-28T04:20:29.853Z,974.31
2023-01-28T04:21:29.927Z,974.34
2023-01-28T04:22:29.939Z,974.32
2023-01-28T04:23:29.974Z,974.32
2023-01-28T04:24:30.040Z,974.32
2023-01-28T04:25:30.042Z,974.34
2023-01-28T04:26:30.114Z,974.29
2023-01-28T04:27:30.130Z,974.27
2023-01-28T04:28:30.188Z,974.26
2023-01-28T04:29:30.207Z,974.31
2023-01-28T04:30:30.263Z,974.31
2023-01-28T04:31:30.309Z,974.33
2023-01-28T04:32:30.352Z,974.32
2023-01-28T04:33:30.355Z,974.37
2023-01-28T04:34:30.397Z,974.32
2023-01-28T04:35:30.458Z,974.29
2023-01-28T04:36:30.492Z,974.31
2023-01-28T04:37:30.508Z,974.32
2023-01-28T04:38:30.579Z,974.32
2023-01-28T04:39:30.596Z,974.33
2023-01-28T04:40:30.626Z,974.38
2023-01-28T04:41:30.664Z,974.35
2023-01-28T04:42:30.712Z,974.41
2023-01-28T04:43:30.769Z,974.35
2023-01-28T04:44:30.789Z,974.34
2023-01-28T04:45:31.752Z,974.42
2023-01-28T04:46:30.934Z,974.41
2023-01-28T04:47:30.942Z,974.41
2023-01-28T04:48:30.942Z,974.42
2023-01-28T04:49:38.785Z,974.45
2023-01-28T04:50:31.020Z,974.41
2023-01-28T04:51:31.787Z,974.40
2023-01-28T04:52:31.122Z,974.41
2023-01-28T04:53:31.136Z,974.43
2023-01-28T04:54:31.185Z,974.44
2023-01-28T04:55:31.208Z,974.41
2023-01-28T04:56:31.252Z,974.42
2023-01-28T04:57:31.408Z,974.40
2023-01-28T04:58:31.332Z,974.46
2023-01-28T04:59:31.389Z,974.47
2023-01-28T05:00:31.402Z,974.42
2023-01-28T05:01:31.443Z,974.41
2023-01-28T05:02:31.482Z,974.42
2023-01-28T05:03:31.513Z,974.41
2023-01-28T05:04:31.591Z,974.44
2023-01-28T05:05:31.619Z,974.45
2023-01-28T05:06:31.626Z,974.49
2023-01-28T05:07:31.679Z,974.50
2023-01-28T05:08:31.706Z,974.52
2023-01-28T05:09:31.776Z,974.56
2023-01-28T05:10:31.792Z,974.57
2023-01-28T05:11:31.855Z,974.51
2023-01-28T05:12:31.860Z,974.61
2023-01-28T05:13:31.896Z,974.56
2023-01-28T05:14:31.987Z,974.54
2023-01-28T05:15:31.984Z,974.55
2023-01-28T05:16:32.034Z,974.54
2023-01-28T05:17:32.088Z,974.53
2023-01-28T05:18:32.095Z,974.53
2023-01-28T05:19:32.138Z,974.56
2023-01-28T05:20:32.193Z,974.59
2023-01-28T05:21:32.205Z,974.54
2023-01-28T05:22:32.266Z,974.58
2023-01-28T05:23:32.312Z,974.57
2023-01-28T05:24:32.466Z,974.55
2023-01-28T05:25:32.359Z,974.55
2023-01-28T05:26:32.401Z,974.51
2023-01-28T05:27:32.438Z,974.51
2023-01-28T05:28:32.500Z,974.55
2023-01-28T05:29:32.511Z,974.59
2023-01-28T05:30:32.623Z,974.58
2023-01-28T05:31:32.616Z,974.61
2023-01-28T05:32:32.664Z,974.62
2023-01-28T05:33:32.699Z,974.61
2023-01-28T05:34:32.707Z,974.61
2023-01-28T05:35:32.797Z,974.65
2023-01-28T05:36:32.818Z,974.64
2023-01-28T05:37:32.822Z,974.68
2023-01-28T05:38:32.861Z,974.64
2023-01-28T05:39:32.898Z,974.65
2023-01-28T05:40:32.973Z,974.66
2023-01-28T05:41:32.989Z,974.65
2023-01-28T05:42:33.024Z,974.71
2023-01-28T05:43:33.085Z,974.68
2023-01-28T05:44:33.103Z,974.68
2023-01-28T05:45:33.202Z,974.65
2023-01-28T05:46:33.209Z,974.68
2023-01-28T05:47:33.215Z,974.70
2023-01-28T05:48:33.251Z,974.72
2023-01-28T05:49:33.283Z,974.74
2023-01-28T05:50:33.328Z,974.73
2023-01-28T05:51:33.394Z,974.72
2023-01-28T05:52:33.401Z,974.71
2023-01-28T05:53:33.496Z,974.73
2023-01-28T05:54:33.508Z,974.73
2023-01-28T05:55:33.518Z,974.68
2023-01-28T05:56:33.612Z,974.78
2023-01-28T05:57:33.629Z,974.72
2023-01-28T05:58:33.638Z,974.70
2023-01-28T05:59:33.676Z,974.79
2023-01-28T06:00:33.728Z,974.83
2023-01-28T06:01:33.791Z,974.81
2023-01-28T06:02:33.834Z,974.82
2023-01-28T06:03:33.834Z,974.86
2023-01-28T06:04:33.864Z,974.81
2023-01-28T06:05:34.833Z,974.84
2023-01-28T06:06:33.937Z,974.83
2023-01-28T06:07:34.016Z,974.81
2023-01-28T06:08:34.024Z,974.85
2023-01-28T06:09:34.064Z,974.87
2023-01-28T06:10:34.097Z,974.84
2023-01-28T06:11:34.795Z,974.86
2023-01-28T06:12:34.191Z,974.85
2023-01-28T06:13:34.224Z,974.87
2023-01-28T06:14:34.264Z,974.92
2023-01-28T06:15:34.342Z,974.90
2023-01-28T06:16:34.356Z,974.90
2023-01-28T06:17:34.357Z,974.92
2023-01-28T06:18:34.400Z,974.90
2023-01-28T06:19:34.443Z,974.96
2023-01-28T06:20:34.490Z,974.90
2023-01-28T06:21:34.555Z,974.93
2023-01-28T06:22:34.564Z,974.93
2023-01-28T06:23:34.604Z,974.96
2023-01-28T06:24:34.635Z,974.96
2023-01-28T06:25:34.682Z,975.00
2023-01-28T06:26:34.740Z,974.99
2023-01-28T06:27:34.756Z,975.02
2023-01-28T06:28:34.783Z,975.02
2023-01-28T06:29:34.828Z,974.99
2023-01-28T06:30:35.842Z,975.04
2023-01-28T06:31:34.923Z,975.02
2023-01-28T06:32:34.970Z,975.03
2023-01-28T06:33:34.974Z,975.01
2023-01-28T06:34:35.010Z,975.05
2023-01-28T06:35:35.044Z,975.01
2023-01-28T06:36:35.090Z,975.02
2023-01-28T06:37:35.150Z,974.99
2023-01-28T06:38:35.166Z,975.06
2023-01-28T06:39:35.244Z,975.02
2023-01-28T06:40:35.246Z,975.02
2023-01-28T06:41:35.292Z,974.99
2023-01-28T06:42:35.318Z,975.04
2023-01-28T06:43:35.355Z,975.06
2023-01-28T06:44:35.390Z,975.05
2023-01-28T06:45:35.439Z,975.08
2023-01-28T06:46:35.564Z,975.08
2023-01-28T06:47:35.513Z,975.05
2023-01-28T06:48:35.581Z,975.08
2023-01-28T06:49:35.584Z,975.07
2023-01-28T06:50:35.645Z,975.08
2023-01-28T06:51:35.662Z,975.11
2023-01-28T06:52:35.737Z,975.12
2023-01-28T06:53:35.728Z,975.09
2023-01-28T06:54:36.289Z,975.10
2023-01-28T06:55:35.816Z,975.09
2023-01-28T06:56:35.844Z,975.10
2023-01-28T06:57:35.913Z,975.08
2023-01-28T06:58:35.933Z,975.11
2023-01-28T06:59:35.967Z,975.14
2023-01-28T07:00:36.788Z,975.17
2023-01-28T07:01:36.056Z,975.16
2023-01-28T07:02:36.136Z,975.17
2023-01-28T07:03:36.115Z,975.16
2023-01-28T07:04:36.166Z,975.16
2023-01-28T07:05:36.195Z,975.19
2023-01-28T07:06:36.253Z,975.19
2023-01-28T07:07:36.293Z,975.19
2023-01-28T07:08:36.306Z,975.22
2023-01-28T07:09:36.345Z,975.21
2023-01-28T07:10:36.383Z,975.24
2023-01-28T07:11:36.420Z,975.23
2023-01-28T07:12:36.479Z,975.27
2023-01-28T07:13:37.290Z,975.29
2023-01-28T07:14:36.535Z,975.26
2023-01-28T07:15:36.572Z,975.31
2023-01-28T07:16:36.629Z,975.26
2023-01-28T07:17:36.661Z,975.28
2023-01-28T07:18:36.713Z,975.32
2023-01-28T07:19:36.724Z,975.31
2023-01-28T07:20:36.760Z,975.32
2023-01-28T07:21:36.838Z,975.34
2023-01-28T07:22:36.832Z,975.36
2023-01-28T07:23:36.905Z,975.40
2023-01-28T07:24:36.912Z,975.44
2023-01-28T07:25:36.974Z,975.41
2023-01-28T07:26:36.986Z,975.42
2023-01-28T07:27:37.046Z,975.49
2023-01-28T07:28:37.088Z,975.49
2023-01-28T07:29:37.093Z,975.48
2023-01-28T07:30:37.142Z,975.53
2023-01-28T07:31:37.305Z,975.52
2023-01-28T07:32:37.220Z,975.52
2023-01-28T07:33:37.270Z,975.54
2023-01-28T07:34:37.286Z,975.53
2023-01-28T07:35:37.335Z,975.54
2023-01-28T07:36:38.287Z,975.59
2023-01-28T07:37:37.436Z,975.57
2023-01-28T07:38:37.449Z,975.57
2023-01-28T07:39:37.485Z,975.63
2023-01-28T07:40:37.517Z,975.61
2023-01-28T07:41:37.591Z,975.63
2023-01-28T07:42:37.594Z,975.62
2023-01-28T07:43:37.632Z,975.63
2023-01-28T07:44:37.708Z,975.65
2023-01-28T07:45:37.719Z,975.70
2023-01-28T07:46:37.780Z,975.64
2023-01-28T07:47:37.798Z,975.74
2023-01-28T07:48:37.826Z,975.68
2023-01-28T07:49:37.879Z,975.74
2023-01-28T07:50:37.915Z,975.72
2023-01-28T07:51:37.978Z,975.70
2023-01-28T07:52:37.978Z,975.72
2023-01-28T07:53:38.028Z,975.77
2023-01-28T07:54:38.056Z,975.76
2023-01-28T07:55:38.114Z,975.78
2023-01-28T07:56:38.166Z,975.80
2023-01-28T07:57:38.184Z,975.81
2023-01-28T07:58:38.219Z,975.82
2023-01-28T07:59:38.289Z,975.85
2023-01-28T08:00:38.296Z,975.87
2023-01-28T08:01:38.378Z,975.88
2023-01-28T08:02:38.393Z,975.93
2023-01-28T08:03:38.405Z,975.95
2023-01-28T08:04:38.486Z,975.94
2023-01-28T08:05:39.289Z,975.92
2023-01-28T08:06:38.547Z,975.94
2023-01-28T08:07:38.606Z,975.90
2023-01-28T08:08:38.628Z,975.94
2023-01-28T08:09:38.636Z,975.91
2023-01-28T08:10:38.680Z,975.94
2023-01-28T08:11:38.741Z,975.96
2023-01-28T08:12:38.752Z,975.99
2023-01-28T08:13:38.825Z,976.00
2023-01-28T08:14:38.838Z,975.99
2023-01-28T08:15:38.930Z,976.02
2023-01-28T08:16:38.911Z,976.05
2023-01-28T08:17:38.980Z,976.11
2023-01-28T08:18:38.987Z,976.09
2023-01-28T08:19:39.031Z,976.07
2023-01-28T08:20:39.069Z,976.10
2023-01-28T08:21:39.129Z,976.11
2023-01-28T08:22:39.780Z,976.14
2023-01-28T08:23:39.192Z,976.13
2023-01-28T08:24:39.261Z,976.16
2023-01-28T08:25:39.270Z,976.19
2023-01-28T08:26:39.301Z,976.15
2023-01-28T08:27:39.349Z,976.18
2023-01-28T08:28:40.290Z,976.16
2023-01-28T08:29:39.451Z,976.16
2023-01-28T08:30:39.500Z,976.18
2023-01-28T08:31:39.518Z,976.22
2023-01-28T08:32:39.547Z,976.18
2023-01-28T08:33:39.585Z,976.20
2023-01-28T08:34:39.650Z,976.23
2023-01-28T08:35:39.657Z,976.23
2023-01-28T08:36:39.710Z,976.24
2023-01-28T08:37:39.757Z,976.25
2023-01-28T08:38:39.785Z,976.24
2023-01-28T08:39:39.837Z,976.26
2023-01-28T08:40:39.864Z,976.28
2023-01-28T08:41:39.923Z,976.23
2023-01-28T08:42:39.949Z,976.26
2023-01-28T08:43:39.983Z,976.27
2023-01-28T08:44:40.020Z,976.23
2023-01-28T08:45:40.786Z,976.24
2023-01-28T08:46:40.202Z,976.32
2023-01-28T08:47:40.137Z,976.27
2023-01-28T08:48:40.181Z,976.28
2023-01-28T08:49:40.220Z,976.31
2023-01-28T08:50:40.264Z,976.35
2023-01-28T08:51:40.321Z,976.31
2023-01-28T08:52:40.356Z,976.33
2023-01-28T08:53:40.406Z,976.32
2023-01-28T08:54:40.417Z,976.35
2023-01-28T08:55:40.465Z,976.30
2023-01-28T08:56:40.501Z,976.31
2023-01-28T08:57:40.535Z,976.35
2023-01-28T08:58:40.591Z,976.33
2023-01-28T08:59:40.606Z,976.34
2023-01-28T09:00:40.658Z,976.36
2023-01-28T09:01:40.755Z,976.34
2023-01-28T09:02:40.728Z,976.33
2023-01-28T09:03:40.839Z,976.34
2023-01-28T09:04:40.815Z,976.38
2023-01-28T09:05:40.844Z,976.33
2023-01-28T09:06:40.904Z,976.32
2023-01-28T09:07:40.925Z,976.33
2023-01-28T09:08:40.975Z,976.32
2023-01-28T09:09:41.001Z,976.37
2023-01-28T09:10:41.068Z,976.36
2023-01-28T09:11:41.101Z,976.37
2023-01-28T09:12:41.126Z,976.40
2023-01-28T09:13:41.163Z,976.40
2023-01-28T09:14:41.220Z,976.42
2023-01-28T09:15:41.305Z,976.41
2023-01-28T09:16:41.306Z,976.48
2023-01-28T09:17:41.317Z,976.44
2023-01-28T09:18:41.374Z,976.41
2023-01-28T09:19:41.399Z,976.45
2023-01-28T09:20:42.282Z,976.43
2023-01-28T09:21:41.495Z,976.48
2023-01-28T09:22:41.516Z,976.50
2023-01-28T09:23:41.584Z,976.50
2023-01-28T09:24:41.601Z,976.53
2023-01-28T09:25:41.635Z,976.50
2023-01-28T09:26:41.679Z,976.59
2023-01-28T09:27:41.712Z,976.53
2023-01-28T09:28:41.796Z,976.57
2023-01-28T09:29:41.794Z,976.59
2023-01-28T09:30:41.858Z,976.60
2023-01-28T09:31:42.804Z,976.58
2023-01-28T09:32:41.913Z,976.63
2023-01-28T09:33:41.991Z,976.64
2023-01-28T09:34:42.010Z,976.62
2023-01-28T09:35:42.061Z,976.63
2023-01-28T09:36:42.109Z,976.64
2023-01-28T09:37:42.431Z,976.66
2023-01-28T09:38:42.144Z,976.66
2023-01-28T09:39:42.224Z,976.62
2023-01-28T09:40:42.253Z,976.64
2023-01-28T09:41:42.299Z,976.64
2023-01-28T09:42:42.350Z,976.63
2023-01-28T09:43:43.294Z,976.67
2023-01-28T09:44:42.396Z,976.66
2023-01-28T09:45:42.437Z,976.70
2023-01-28T09:46:42.525Z,976.70
2023-01-28T09:47:42.532Z,976.74
2023-01-28T09:48:42.555Z,976.75
2023-01-28T09:49:42.597Z,976.72
2023-01-28T09:50:42.629Z,976.74
2023-01-28T09:51:42.684Z,976.73
2023-01-28T09:52:42.760Z,976.69
2023-01-28T09:53:42.751Z,976.70
2023-01-28T09:54:42.792Z,976.70
2023-01-28T09:55:42.847Z,976.71
2023-01-28T09:56:42.879Z,976.72
2023-01-28T09:57:42.949Z,976.71
2023-01-28T10:00:58.133Z,976.73
2023-01-28T10:01:58.113Z,976.71
2023-01-28T10:02:58.159Z,976.69
2023-01-28T10:03:58.242Z,976.77
2023-01-28T10:04:58.232Z,976.71
2023-01-28T10:05:58.309Z,976.70
2023-01-28T10:06:58.323Z,976.69
2023-01-28T10:07:58.348Z,976.73
2023-01-28T10:08:58.392Z,976.73
2023-01-28T10:09:58.427Z,976.70
2023-01-28T10:10:58.495Z,976.73
2023-01-28T10:11:59.434Z,976.69
2023-01-28T10:12:58.552Z,976.70
2023-01-28T10:13:58.593Z,976.66
2023-01-28T10:14:58.637Z,976.64
2023-01-28T10:15:58.691Z,976.63
2023-01-28T10:16:58.771Z,976.60
2023-01-28T10:18:10.952Z,976.57
2023-01-28T10:18:58.801Z,976.58
2023-01-28T10:19:58.832Z,976.62
2023-01-28T10:20:58.902Z,976.57
2023-01-28T10:21:58.916Z,976.52
2023-01-28T10:22:58.981Z,976.50
2023-01-28T10:23:59.055Z,976.48
2023-01-28T10:24:59.748Z,976.48
2023-01-28T10:25:59.107Z,976.49
2023-01-28T10:26:59.124Z,976.51
2023-01-28T10:27:59.195Z,976.51
2023-01-28T10:28:59.211Z,976.50
2023-01-28T10:29:59.245Z,976.45
2023-01-28T10:30:59.334Z,976.45
2023-01-28T10:31:59.372Z,976.44
2023-01-28T10:32:59.412Z,976.43
2023-01-28T10:33:59.415Z,976.39
2023-01-28T10:34:59.456Z,976.45
2023-01-28T10:35:59.505Z,976.45
2023-01-28T10:37:00.253Z,976.45
2023-01-28T10:37:59.612Z,976.56
2023-01-28T10:38:59.614Z,976.55
2023-01-28T10:39:59.658Z,976.52
2023-01-28T10:40:59.711Z,976.56
2023-01-28T10:41:59.772Z,976.58
2023-01-28T10:42:59.839Z,976.61
2023-01-28T10:43:59.846Z,976.58
2023-01-28T10:44:59.888Z,976.56
2023-01-28T10:45:59.959Z,976.53
2023-01-28T10:46:59.967Z,976.59
2023-01-28T10:48:00.029Z,976.58
2023-01-28T10:49:00.051Z,976.61
2023-01-28T10:50:00.117Z,976.59
2023-01-28T10:51:00.180Z,976.63
2023-01-28T10:52:00.195Z,976.63
2023-01-28T10:53:00.243Z,976.65
2023-01-28T10:54:00.291Z,976.57
2023-01-28T10:55:00.369Z,976.56
2023-01-28T10:56:00.378Z,976.54
2023-01-28T10:57:00.431Z,976.53
2023-01-28T10:58:00.474Z,976.57
2023-01-28T10:59:00.540Z,976.51
2023-01-28T11:00:00.646Z,976.52
2023-01-28T11:01:00.661Z,976.50
2023-01-28T11:02:00.727Z,976.62
2023-01-28T11:03:00.745Z,976.55
2023-01-28T11:04:00.769Z,976.62
2023-01-28T11:05:00.862Z,976.63
2023-01-28T11:06:01.760Z,976.68
2023-01-28T11:07:00.938Z,976.60
2023-01-28T11:08:00.966Z,976.56
2023-01-28T11:09:01.630Z,976.52
2023-01-28T11:10:01.097Z,976.50
2023-01-28T11:11:01.118Z,976.47
2023-01-28T11:12:01.167Z,976.51
2023-01-28T11:13:01.261Z,976.53
2023-01-28T11:14:01.307Z,976.53
2023-01-28T11:15:01.319Z,976.59
2023-01-28T11:16:01.375Z,976.58
2023-01-28T11:17:01.409Z,976.58
2023-01-28T11:18:01.474Z,976.60
2023-01-28T11:19:01.508Z,976.59
2023-01-28T11:20:01.555Z,976.53
2023-01-28T11:21:01.603Z,976.54
2023-01-28T11:22:01.657Z,976.58
2023-01-28T11:23:01.706Z,976.61
2023-01-28T11:24:01.759Z,976.55
2023-01-28T11:25:01.788Z,976.54
2023-01-28T11:26:01.825Z,976.52
2023-01-28T11:27:02.412Z,976.53
2023-01-28T11:28:01.920Z,976.55
2023-01-28T11:29:01.971Z,976.48
2023-01-28T11:30:02.029Z,976.55
2023-01-28T11:31:02.076Z,976.54
2023-01-28T11:32:02.168Z,976.57
2023-01-28T11:33:02.168Z,976.53
2023-01-28T11:34:02.225Z,976.53
2023-01-28T11:35:02.256Z,976.55
2023-01-28T11:36:03.267Z,976.56
2023-01-28T11:37:02.330Z,976.51
2023-01-28T11:38:02.399Z,976.55
2023-01-28T11:39:02.435Z,976.58
2023-01-28T11:40:02.455Z,976.58
2023-01-28T11:41:02.535Z,976.60
2023-01-28T11:42:03.265Z,976.59
2023-01-28T11:43:02.592Z,976.58
2023-01-28T11:44:02.638Z,976.65
2023-01-28T11:45:02.773Z,976.61
2023-01-28T11:46:05.147Z,976.60
2023-01-28T11:47:02.813Z,976.59
2023-01-28T11:48:02.823Z,976.60
2023-01-28T11:49:02.857Z,976.51
2023-01-28T11:50:02.904Z,976.55
2023-01-28T11:51:02.945Z,976.50
2023-01-28T11:52:03.028Z,976.53
2023-01-28T11:53:07.166Z,976.47
2023-01-28T11:54:03.116Z,976.49
2023-01-28T11:55:03.132Z,976.45
2023-01-28T11:56:03.176Z,976.44
2023-01-28T11:57:03.234Z,976.44
2023-01-28T11:58:03.286Z,976.37
2023-01-28T11:59:03.299Z,976.37
2023-01-28T12:00:03.341Z,976.37
2023-01-28T12:01:03.400Z,976.34
2023-01-28T12:02:03.460Z,976.38
2023-01-28T12:03:03.476Z,976.38
2023-01-28T12:04:03.515Z,976.34
2023-01-28T12:05:03.621Z,976.40
2023-01-28T12:06:04.268Z,976.38
2023-01-28T12:07:03.668Z,976.35
2023-01-28T12:08:03.724Z,976.38
2023-01-28T12:09:03.740Z,976.39
2023-01-28T12:10:03.774Z,976.36
2023-01-28T12:11:03.827Z,976.34
2023-01-28T12:12:05.090Z,976.37
2023-01-28T12:13:03.939Z,976.33
2023-01-28T12:14:03.958Z,976.36
2023-01-28T12:15:04.011Z,976.32
2023-01-28T12:16:04.074Z,976.33
2023-01-28T12:17:04.087Z,976.33
2023-01-28T12:18:04.139Z,976.32
2023-01-28T12:19:04.176Z,976.33
2023-01-28T12:20:04.205Z,976.32
2023-01-28T12:21:04.239Z,976.33
2023-01-28T12:22:04.294Z,976.32
2023-01-28T12:23:04.358Z,976.29
2023-01-28T12:24:04.436Z,976.26
2023-01-28T12:25:04.424Z,976.25
2023-01-28T12:26:04.492Z,976.26
2023-01-28T12:27:04.508Z,976.28
2023-01-28T12:28:04.529Z,976.33
2023-01-28T12:29:04.582Z,976.28
2023-01-28T12:30:04.619Z,976.30
2023-01-28T12:31:04.732Z,976.28